Big Bear Station Historical Data
Daily Summary for June 5, 2017 Units:  English    Metric   Both
« Previous Day
Next Day »
Daily Weekly Monthly Yearly Custom
  High: Low: Average:
Temperature: 82.4 °F 50.9 °F 65.2 °F
Dew Point: 41.9 °F 16.1 °F 32 °F
Humidity: 54 % 14 % 31 %
Wind Speed: 6.3 mph 0.0 mph 2.1 mph
Wind Gust: -999.0 mph - -
Wind:- - South
Pressure: 30.19 in 30.13 in -
Precipitation: 0.00 in    
Historical Graphs
 
 
Tabular Data for June 5, 2017
Time Temperature Dew Point Pressure Wind Wind Speed Wind Gust Humidity Rainfall Rate (Hourly)
00:15 57.7 °F 34.8 °F 30.16 in Calm   -999.0 mph 42 % 0 in
00:30 57.7 °F 34.8 °F 30.15 in SSE 1.1 mph -999.0 mph 42 % 0 in
00:45 57.9 °F 35.5 °F 30.15 in SE 2.2 mph -999.0 mph 43 % 0 in
01:00 57.6 °F 35.3 °F 30.15 in WSW 1.1 mph -999.0 mph 43 % 0 in
01:16 57.0 °F 34.7 °F 30.15 in Calm   -999.0 mph 43 % 0 in
01:31 56.7 °F 34.4 °F 30.14 in ESE 1.1 mph -999.0 mph 43 % 0 in
01:46 56.3 °F 34.7 °F 30.14 in Calm   -999.0 mph 44 % 0 in
02:01 56.5 °F 34.8 °F 30.14 in Calm   -999.0 mph 44 % 0 in
02:16 55.2 °F 34.2 °F 30.14 in Calm   -999.0 mph 45 % 0 in
02:32 54.3 °F 34.0 °F 30.13 in Calm   -999.0 mph 46 % 0 in
02:47 53.4 °F 33.7 °F 30.13 in Calm   -999.0 mph 47 % 0 in
03:02 52.9 °F 33.7 °F 30.13 in Calm   -999.0 mph 48 % 0 in
03:17 52.3 °F 30.5 °F 30.13 in Calm   -999.0 mph 43 % 0 in
03:33 52.3 °F 29.9 °F 30.13 in SSW 1.7 mph -999.0 mph 42 % 0 in
03:48 52.0 °F 30.2 °F 30.13 in Calm   -999.0 mph 43 % 0 in
04:03 52.0 °F 27.2 °F 30.13 in South 2.2 mph -999.0 mph 38 % 0 in
04:18 52.0 °F 24.5 °F 30.13 in SSW 2.2 mph -999.0 mph 34 % 0 in
04:33 50.9 °F 25.5 °F 30.13 in WSW 1.7 mph -999.0 mph 37 % 0 in
04:49 50.9 °F 22.1 °F 30.13 in South 2.2 mph -999.0 mph 32 % 0 in
05:04 51.6 °F 18.7 °F 30.13 in South 1.7 mph -999.0 mph 27 % 0 in
05:19 53.1 °F 17.2 °F 30.13 in South 2.7 mph -999.0 mph 24 % 0 in
05:34 52.9 °F 16.1 °F 30.13 in SW 1.1 mph -999.0 mph 23 % 0 in
05:49 53.2 °F 16.3 °F 30.13 in South 1.7 mph -999.0 mph 23 % 0 in
06:05 53.4 °F 19.3 °F 30.13 in South 2.7 mph -999.0 mph 26 % 0 in
06:20 53.6 °F 21.3 °F 30.14 in SSW 2.7 mph -999.0 mph 28 % 0 in
06:35 53.6 °F 24.4 °F 30.14 in South 2.2 mph -999.0 mph 32 % 0 in
06:50 54.9 °F 25.6 °F 30.14 in South 2.2 mph -999.0 mph 32 % 0 in
07:05 55.4 °F 25.2 °F 30.14 in Calm   -999.0 mph 31 % 0 in
07:21 55.9 °F 27.2 °F 30.15 in Calm   -999.0 mph 33 % 0 in
07:36 57.6 °F 24.7 °F 30.14 in Calm   -999.0 mph 28 % 0 in
07:51 60.1 °F 25.1 °F 30.15 in Calm   -999.0 mph 26 % 0 in
08:06 61.9 °F 21.5 °F 30.15 in Calm   -999.0 mph 21 % 0 in
08:21 63.5 °F 19.2 °F 30.15 in ESE 1.1 mph -999.0 mph 18 % 0 in
08:37 65.5 °F 19.5 °F 30.16 in Calm   -999.0 mph 17 % 0 in
08:52 67.1 °F 17.9 °F 30.16 in South 3.7 mph -999.0 mph 15 % 0 in
09:08 67.3 °F 18.0 °F 30.16 in East 3.2 mph -999.0 mph 15 % 0 in
09:23 68.0 °F 18.6 °F 30.16 in NW 3.7 mph -999.0 mph 15 % 0 in
09:38 69.3 °F 18.0 °F 30.16 in SSW 3.7 mph -999.0 mph 14 % 0 in
09:54 70.0 °F 20.2 °F 30.16 in NNE 2.2 mph -999.0 mph 15 % 0 in
10:09 71.4 °F 25.7 °F 30.17 in South 2.2 mph -999.0 mph 18 % 0 in
10:24 71.2 °F 21.2 °F 30.17 in SSW 3.7 mph -999.0 mph 15 % 0 in
10:40 71.8 °F 21.6 °F 30.17 in SSE 2.7 mph -999.0 mph 15 % 0 in
10:55 72.5 °F 20.6 °F 30.18 in SSE 4.7 mph -999.0 mph 14 % 0 in
11:10 73.2 °F 22.8 °F 30.18 in SSW 4.2 mph -999.0 mph 15 % 0 in
11:26 74.3 °F 23.6 °F 30.18 in ESE 3.7 mph -999.0 mph 15 % 0 in
11:41 75.0 °F 24.2 °F 30.18 in South 5.8 mph -999.0 mph 15 % 0 in
11:57 76.8 °F 25.6 °F 30.18 in SSE 3.2 mph -999.0 mph 15 % 0 in
12:12 77.4 °F 27.7 °F 30.18 in South 2.2 mph -999.0 mph 16 % 0 in
12:27 77.9 °F 28.1 °F 30.18 in WSW 2.2 mph -999.0 mph 16 % 0 in
12:43 78.6 °F 31.6 °F 30.18 in SSW 4.7 mph -999.0 mph 18 % 0 in
12:58 79.7 °F 35.1 °F 30.18 in NW 6.3 mph -999.0 mph 20 % 0 in
13:14 78.6 °F 36.6 °F 30.18 in NE 1.7 mph -999.0 mph 22 % 0 in
13:29 79.9 °F 38.8 °F 30.18 in NNE 4.7 mph -999.0 mph 23 % 0 in
13:45 79.5 °F 39.6 °F 30.18 in SW 4.2 mph -999.0 mph 24 % 0 in
14:00 79.2 °F 40.4 °F 30.17 in SSE 2.2 mph -999.0 mph 25 % 0 in
14:16 80.4 °F 40.3 °F 30.17 in SSE 5.8 mph -999.0 mph 24 % 0 in
14:31 79.2 °F 41.4 °F 30.17 in ESE 3.7 mph -999.0 mph 26 % 0 in
14:46 81.0 °F 41.9 °F 30.17 in WSW 3.2 mph -999.0 mph 25 % 0 in
15:01 79.3 °F 40.4 °F 30.18 in West 4.7 mph -999.0 mph 25 % 0 in
15:17 78.3 °F 40.6 °F 30.17 in South 4.2 mph -999.0 mph 26 % 0 in
15:32 77.4 °F 39.8 °F 30.16 in SW 4.7 mph -999.0 mph 26 % 0 in
15:47 79.2 °F 41.4 °F 30.16 in NW 5.3 mph -999.0 mph 26 % 0 in
16:02 76.1 °F 39.7 °F 30.16 in SSE 4.7 mph -999.0 mph 27 % 0 in
16:18 77.2 °F 40.6 °F 30.16 in NE 1.7 mph -999.0 mph 27 % 0 in
16:33 77.4 °F 40.8 °F 30.16 in SSW 4.7 mph -999.0 mph 27 % 0 in
16:49 78.3 °F 40.6 °F 30.16 in NNW 2.2 mph -999.0 mph 26 % 0 in
17:04 77.7 °F 40.1 °F 30.16 in South 2.7 mph -999.0 mph 26 % 0 in
17:19 82.4 °F 40.9 °F 30.16 in SSW 2.2 mph -999.0 mph 23 % 0 in
17:34 80.1 °F 40.1 °F 30.16 in SW 5.8 mph -999.0 mph 24 % 0 in
17:49 77.0 °F 39.5 °F 30.16 in South 4.2 mph -999.0 mph 26 % 0 in
18:05 77.7 °F 40.1 °F 30.16 in WSW 2.2 mph -999.0 mph 26 % 0 in
18:20 74.5 °F 39.3 °F 30.16 in West 2.2 mph -999.0 mph 28 % 0 in
18:35 73.9 °F 39.6 °F 30.16 in South 3.2 mph -999.0 mph 29 % 0 in
18:50 75.2 °F 39.9 °F 30.16 in SW 2.2 mph -999.0 mph 28 % 0 in
19:06 74.1 °F 39.8 °F 30.16 in SE 3.2 mph -999.0 mph 29 % 0 in
19:21 71.4 °F 39.2 °F 30.16 in SE 3.7 mph -999.0 mph 31 % 0 in
19:36 68.7 °F 38.4 °F 30.16 in ESE 4.2 mph -999.0 mph 33 % 0 in
19:52 67.1 °F 38.5 °F 30.16 in Calm   -999.0 mph 35 % 0 in
20:07 65.7 °F 38.7 °F 30.16 in Calm   -999.0 mph 37 % 0 in
20:22 64.0 °F 37.9 °F 30.17 in Calm   -999.0 mph 38 % 0 in
20:37 62.8 °F 38.7 °F 30.17 in Calm   -999.0 mph 41 % 0 in
20:53 61.5 °F 37.6 °F 30.17 in Calm   -999.0 mph 41 % 0 in
21:08 61.0 °F 37.1 °F 30.18 in Calm   -999.0 mph 41 % 0 in
21:23 59.7 °F 39.4 °F 30.18 in South 1.7 mph -999.0 mph 47 % 0 in
21:39 58.8 °F 38.6 °F 30.18 in Calm   -999.0 mph 47 % 0 in
21:54 57.9 °F 38.3 °F 30.18 in South 2.2 mph -999.0 mph 48 % 0 in
22:09 57.2 °F 37.1 °F 30.18 in Calm   -999.0 mph 47 % 0 in
22:24 56.3 °F 37.4 °F 30.19 in Calm   -999.0 mph 49 % 0 in
22:40 55.6 °F 37.2 °F 30.19 in Calm   -999.0 mph 50 % 0 in
22:55 54.7 °F 37.4 °F 30.18 in Calm   -999.0 mph 52 % 0 in
23:10 54.3 °F 37.5 °F 30.18 in SE 2.2 mph -999.0 mph 53 % 0 in
23:25 53.2 °F 36.0 °F 30.18 in SSE 1.7 mph -999.0 mph 52 % 0 in
23:41 52.9 °F 36.7 °F 30.18 in South 1.7 mph -999.0 mph 54 % 0 in
23:56 52.5 °F 35.4 °F 30.18 in South 1.7 mph -999.0 mph 52 % 0 in
Big Bear CA Weather
Compliments of Weather Underground - 1.5 mb